Terminal Aerodrome Forecast
Issued by NWS Greer, SC

Current Version | Previous Version | Text Only | Print | Product List | Glossary On
Versions: 1 2 3 4 5 6 7 8 9 10 11 12 13 14 15 16 17 18 19 20 21 22 23 24 25 26 27 28 29 30 31 32 33 34 35 36 37 38 39 40 41 42 43 44
000
FTUS42 KGSP 291738
TAFAVL
TAF
KAVL 291738Z 2918/3018 17005KT P6SM VCTS SCT045CB BKN100
      TEMPO 2918/2920 3SM SHRA BKN025 OVC050
     FM292100 18005KT P6SM SCT050 BKN250
     FM300800 00000KT 3SM BR BKN035
     FM301200 00000KT P6SM BKN012
     FM301600 17004KT P6SM BKN060=

USA.gov is the U.S. government's official web portal to all federal, state and local government web resources and services.